Aérodrome :
LOGIN :

S'inscrire | Disclaimer

   EN    FR    IT 

 










Légende :    VFR   VFR Marginal   IFR   IFR Intensif   IFR Très Intensif
Visi : 
Plafond : 
>= 8 km
>= 3000ft
5 à 8 km
1000 à 3000 ft
1500m à 5 km
500 à 1000 ft
800 à 1500m
200 à 500 ft
< 800m
< 200 ft
Symboles :   Orages  Brouillard  Fortes neiges  Fortes précipitations  Vent > 20 kt
SIGMETs :   Divers  Orages  Givrage  Turbulence  Onde Orograph.  Cendres Volcan.






- Altitude de l'aérodrome : 463 ft
- Code IATA : SZY
- AEROPORT FERMÉ.


EPSY - Szczytno

DERNIER METAR :
  • 231800Z 20006KT 9999 -RA SCT014 BKN026 02/02 Q0999

METARs EXPIRÉS :
  • 231730Z 22009KT 9999 -RA FEW007 BKN014 BKN025 03/02 Q0999
  • 231700Z 26008KT 200V300 9000 -RA BKN022 04/01 Q1000
  • 231630Z 22005KT 190V310 9999 -RA BKN035 04/01 Q1000
  • 231600Z 20005KT 9999 SCT033 03/01 Q1000
  • 231530Z 21003KT 9999 BKN038 04/01 Q1001

TAF TAF EPSY
Valide du 23 à 18h jusqu'au 24 à 03h UTC


231730Z 2318/2403 22007KT 9999 -RA BKN012 BKN020
TEMPO 2318/2323 4000 RA BR BKN007 BKN012
PROB40
TEMPO 2323/2403 2000 SHRASN BR SCT005 BKN012CB



MET'MAP, la Météo Aéronautique d'un coup d'oeil ! - Copyright ORBIFLY Décembre 2007 - Disclaimer

ORBIFLY MET'MAP TEAM :

Programmation & Développement : Alexandra Zaïnal
Sur une idée originale de : Baudouin d'Aumeries
Assistance à la programmation : Marc-Olivier Méhu
Soutien technique & logistique : Manuel Goepfert

Contact : metmap@orbifly.com




SOURCES & CREDITS :

   NOAA